sensor_id;sensor_type;location;lat;lon;timestamp;pressure;altitude;pressure_sealevel;temperature;humidity
72560;BME280;62987;52.382;9.752;2022-12-07T00:01:21;100740.31;;;3.99;95.05
72560;BME280;62987;52.382;9.752;2022-12-07T00:03:51;100731.56;;;3.97;94.95
72560;BME280;62987;52.382;9.752;2022-12-07T00:06:20;100730.56;;;4.04;94.98
72560;BME280;62987;52.382;9.752;2022-12-07T00:08:48;100730.63;;;4.01;94.67
72560;BME280;62987;52.382;9.752;2022-12-07T00:11:18;100728.81;;;4.06;94.86
72560;BME280;62987;52.382;9.752;2022-12-07T00:13:47;100721.75;;;4.08;94.97
72560;BME280;62987;52.382;9.752;2022-12-07T00:16:20;100712.94;;;4.11;94.87
72560;BME280;62987;52.382;9.752;2022-12-07T00:18:49;100713.03;;;4.03;94.72
72560;BME280;62987;52.382;9.752;2022-12-07T00:21:18;100705.06;;;4.09;94.39
72560;BME280;62987;52.382;9.752;2022-12-07T00:23:49;100705.97;;;4.08;94.83
72560;BME280;62987;52.382;9.752;2022-12-07T00:26:21;100701.53;;;4.10;94.81
72560;BME280;62987;52.382;9.752;2022-12-07T00:28:51;100696.28;;;4.09;94.87
72560;BME280;62987;52.382;9.752;2022-12-07T00:31:21;100693.63;;;4.12;94.97
72560;BME280;62987;52.382;9.752;2022-12-07T00:33:50;100692.75;;;4.10;94.86
72560;BME280;62987;52.382;9.752;2022-12-07T00:36:20;100693.63;;;4.10;95.00
72560;BME280;62987;52.382;9.752;2022-12-07T00:38:53;100692.75;;;4.11;94.89
72560;BME280;62987;52.382;9.752;2022-12-07T00:41:24;100693.63;;;4.10;95.25
72560;BME280;62987;52.382;9.752;2022-12-07T00:43:53;100690.09;;;4.14;95.61
72560;BME280;62987;52.382;9.752;2022-12-07T00:46:22;100691.88;;;4.12;95.23
72560;BME280;62987;52.382;9.752;2022-12-07T00:48:51;100677.16;;;4.00;94.89
72560;BME280;62987;52.382;9.752;2022-12-07T00:51:21;100690.03;;;4.16;94.79
72560;BME280;62987;52.382;9.752;2022-12-07T00:53:50;100686.47;;;4.21;94.79
72560;BME280;62987;52.382;9.752;2022-12-07T00:56:20;100691.72;;;4.21;94.94
72560;BME280;62987;52.382;9.752;2022-12-07T00:58:54;100684.63;;;4.26;94.66
72560;BME280;62987;52.382;9.752;2022-12-07T01:01:24;100678.50;;;4.23;94.55
72560;BME280;62987;52.382;9.752;2022-12-07T01:03:53;100680.16;;;4.28;94.63
72560;BME280;62987;52.382;9.752;2022-12-07T01:06:22;100675.78;;;4.29;94.85
72560;BME280;62987;52.382;9.752;2022-12-07T01:08:50;100680.16;;;4.30;95.15
72560;BME280;62987;52.382;9.752;2022-12-07T01:11:20;100670.56;;;4.27;94.92
72560;BME280;62987;52.382;9.752;2022-12-07T01:13:51;100677.44;;;4.34;94.84
72560;BME280;62987;52.382;9.752;2022-12-07T01:16:22;100680.13;;;4.33;95.05
72560;BME280;62987;52.382;9.752;2022-12-07T01:18:52;100681.78;;;4.37;95.48
72560;BME280;62987;52.382;9.752;2022-12-07T01:21:23;100677.38;;;4.39;95.03
72560;BME280;62987;52.382;9.752;2022-12-07T01:23:51;100673.81;;;4.41;95.05
72560;BME280;62987;52.382;9.752;2022-12-07T01:26:21;100674.00;;;4.29;94.75
72560;BME280;62987;52.382;9.752;2022-12-07T01:28:50;100684.31;;;4.43;95.06
72560;BME280;62987;52.382;9.752;2022-12-07T01:31:19;100684.28;;;4.45;94.72
72560;BME280;62987;52.382;9.752;2022-12-07T01:33:52;100685.28;;;4.37;95.21
72560;BME280;62987;52.382;9.752;2022-12-07T01:36:22;100680.84;;;4.41;95.16
72560;BME280;62987;52.382;9.752;2022-12-07T01:38:51;100671.91;;;4.50;95.37
72560;BME280;62987;52.382;9.752;2022-12-07T01:41:20;100673.75;;;4.45;95.39
72560;BME280;62987;52.382;9.752;2022-12-07T01:44:10;100658.06;;;4.38;95.63
72560;BME280;62987;52.382;9.752;2022-12-07T01:46:40;100668.66;;;4.35;95.78
72560;BME280;62987;52.382;9.752;2022-12-07T01:49:13;100663.44;;;4.32;95.68
72560;BME280;62987;52.382;9.752;2022-12-07T01:51:42;100657.31;;;4.32;95.78
72560;BME280;62987;52.382;9.752;2022-12-07T01:54:13;100652.19;;;4.23;95.93
72560;BME280;62987;52.382;9.752;2022-12-07T01:56:46;100640.78;;;4.22;95.77
72560;BME280;62987;52.382;9.752;2022-12-07T01:59:17;100649.69;;;4.15;96.01
72560;BME280;62987;52.382;9.752;2022-12-07T02:01:46;100656.75;;;4.15;95.96
72560;BME280;62987;52.382;9.752;2022-12-07T02:04:15;100656.88;;;4.07;95.98
72560;BME280;62987;52.382;9.752;2022-12-07T02:06:44;100650.78;;;4.02;96.32
72560;BME280;62987;52.382;9.752;2022-12-07T02:09:13;100654.38;;;3.98;96.50
72560;BME280;62987;52.382;9.752;2022-12-07T02:11:41;100655.25;;;3.97;96.25
72560;BME280;62987;52.382;9.752;2022-12-07T02:14:09;100651.56;;;4.09;96.39
72560;BME280;62987;52.382;9.752;2022-12-07T02:16:46;100646.34;;;4.06;95.62
72560;BME280;62987;52.382;9.752;2022-12-07T02:22:46;100644.72;;;3.97;96.11
72560;BME280;62987;52.382;9.752;2022-12-07T02:25:27;100648.31;;;3.93;96.24
72560;BME280;62987;52.382;9.752;2022-12-07T02:28:03;100640.34;;;3.97;95.83
72560;BME280;62987;52.382;9.752;2022-12-07T02:30:35;100639.53;;;3.94;95.67
72560;BME280;62987;52.382;9.752;2022-12-07T02:33:12;100625.66;;;3.83;96.48
72560;BME280;62987;52.382;9.752;2022-12-07T02:35:45;100632.53;;;3.93;96.10
72560;BME280;62987;52.382;9.752;2022-12-07T02:38:16;100632.56;;;3.90;95.99
72560;BME280;62987;52.382;9.752;2022-12-07T02:40:50;100629.13;;;3.86;96.13
72560;BME280;62987;52.382;9.752;2022-12-07T02:43:23;100624.84;;;3.81;95.89
72560;BME280;62987;52.382;9.752;2022-12-07T02:45:56;100627.56;;;3.75;96.33
72560;BME280;62987;52.382;9.752;2022-12-07T02:48:27;100631.03;;;3.77;96.23
72560;BME280;62987;52.382;9.752;2022-12-07T02:50:55;100634.69;;;3.68;96.37
72560;BME280;62987;52.382;9.752;2022-12-07T02:53:31;100633.66;;;3.77;95.84
72560;BME280;62987;52.382;9.752;2022-12-07T02:56:02;100629.31;;;3.76;96.08
72560;BME280;62987;52.382;9.752;2022-12-07T02:58:42;100634.50;;;3.79;96.09
72560;BME280;62987;52.382;9.752;2022-12-07T03:01:20;100597.75;;;3.76;95.69
72560;BME280;62987;52.382;9.752;2022-12-07T03:04:00;100617.72;;;3.87;95.67
72560;BME280;62987;52.382;9.752;2022-12-07T03:06:32;100628.25;;;3.86;95.63
72560;BME280;62987;52.382;9.752;2022-12-07T03:09:10;100635.09;;;3.96;95.26
72560;BME280;62987;52.382;9.752;2022-12-07T03:11:46;100601.16;;;3.81;95.09
72560;BME280;62987;52.382;9.752;2022-12-07T03:14:21;100620.22;;;3.95;95.13
72560;BME280;62987;52.382;9.752;2022-12-07T03:16:57;100627.97;;;4.04;95.17
72560;BME280;62987;52.382;9.752;2022-12-07T03:19:27;100621.00;;;4.01;95.42
72560;BME280;62987;52.382;9.752;2022-12-07T03:21:57;100613.13;;;4.00;95.12
72560;BME280;62987;52.382;9.752;2022-12-07T03:24:29;100601.75;;;3.98;95.13
72560;BME280;62987;52.382;9.752;2022-12-07T03:27:03;100601.78;;;3.96;95.34
72560;BME280;62987;52.382;9.752;2022-12-07T03:29:36;100614.88;;;3.99;94.97
72560;BME280;62987;52.382;9.752;2022-12-07T03:32:08;100599.19;;;3.95;95.02
72560;BME280;62987;52.382;9.752;2022-12-07T03:34:42;100609.72;;;3.95;95.11
72560;BME280;62987;52.382;9.752;2022-12-07T03:37:15;100603.63;;;3.91;95.20
72560;BME280;62987;52.382;9.752;2022-12-07T03:39:50;100599.31;;;3.86;94.63
72560;BME280;62987;52.382;9.752;2022-12-07T03:42:22;100603.63;;;3.90;94.63
72560;BME280;62987;52.382;9.752;2022-12-07T03:44:50;100609.75;;;3.92;94.55
72560;BME280;62987;52.382;9.752;2022-12-07T03:47:24;100610.59;;;3.94;94.60
72560;BME280;62987;52.382;9.752;2022-12-07T03:49:58;100607.97;;;3.94;94.81
72560;BME280;62987;52.382;9.752;2022-12-07T03:52:33;100616.75;;;3.93;94.55
72560;BME280;62987;52.382;9.752;2022-12-07T03:55:08;100605.44;;;3.88;94.69
72560;BME280;62987;52.382;9.752;2022-12-07T03:57:39;100616.78;;;3.90;94.31
72560;BME280;62987;52.382;9.752;2022-12-07T04:00:10;100616.00;;;3.83;94.72
72560;BME280;62987;52.382;9.752;2022-12-07T04:02:41;100622.13;;;3.85;94.34
72560;BME280;62987;52.382;9.752;2022-12-07T04:05:10;100621.44;;;3.74;94.64
72560;BME280;62987;52.382;9.752;2022-12-07T04:07:38;100588.44;;;3.55;94.60
72560;BME280;62987;52.382;9.752;2022-12-07T04:10:07;100625.81;;;3.75;94.69
72560;BME280;62987;52.382;9.752;2022-12-07T04:12:35;100624.09;;;3.73;94.24
72560;BME280;62987;52.382;9.752;2022-12-07T04:15:04;100632.84;;;3.75;94.82
72560;BME280;62987;52.382;9.752;2022-12-07T04:17:32;100622.34;;;3.72;94.68
72560;BME280;62987;52.382;9.752;2022-12-07T04:20:01;100621.50;;;3.70;94.77
72560;BME280;62987;52.382;9.752;2022-12-07T04:22:31;100627.59;;;3.72;94.84
72560;BME280;62987;52.382;9.752;2022-12-07T04:24:59;100623.22;;;3.72;94.79
72560;BME280;62987;52.382;9.752;2022-12-07T04:27:27;100617.06;;;3.73;94.79
72560;BME280;62987;52.382;9.752;2022-12-07T04:29:55;100617.09;;;3.72;94.47
72560;BME280;62987;52.382;9.752;2022-12-07T04:32:23;100608.50;;;3.60;94.48
72560;BME280;62987;52.382;9.752;2022-12-07T04:34:51;100604.00;;;3.67;94.60
72560;BME280;62987;52.382;9.752;2022-12-07T04:37:23;100617.16;;;3.69;94.01
72560;BME280;62987;52.382;9.752;2022-12-07T04:39:51;100614.34;;;3.78;94.32
72560;BME280;62987;52.382;9.752;2022-12-07T04:42:19;100610.94;;;3.71;94.35
72560;BME280;62987;52.382;9.752;2022-12-07T04:44:47;100614.34;;;3.78;94.36
72560;BME280;62987;52.382;9.752;2022-12-07T04:47:15;100601.47;;;3.63;94.19
72560;BME280;62987;52.382;9.752;2022-12-07T04:49:43;100589.31;;;3.55;94.06
72560;BME280;62987;52.382;9.752;2022-12-07T04:52:11;100595.25;;;3.67;94.09
72560;BME280;62987;52.382;9.752;2022-12-07T04:54:40;100602.25;;;3.69;94.01
72560;BME280;62987;52.382;9.752;2022-12-07T04:57:08;100604.88;;;3.68;93.63
72560;BME280;62987;52.382;9.752;2022-12-07T04:59:36;100605.72;;;3.70;93.87
72560;BME280;62987;52.382;9.752;2022-12-07T05:02:11;100601.41;;;3.66;94.09
72560;BME280;62987;52.382;9.752;2022-12-07T05:04:39;100586.63;;;3.57;94.07
72560;BME280;62987;52.382;9.752;2022-12-07T05:07:07;100596.13;;;3.67;93.86
72560;BME280;62987;52.382;9.752;2022-12-07T05:09:35;100604.88;;;3.68;93.23
72560;BME280;62987;52.382;9.752;2022-12-07T05:12:04;100606.72;;;3.63;93.35
72560;BME280;62987;52.382;9.752;2022-12-07T05:14:32;100603.28;;;3.57;93.76
72560;BME280;62987;52.382;9.752;2022-12-07T05:17:00;100602.44;;;3.55;93.84
72560;BME280;62987;52.382;9.752;2022-12-07T05:19:28;100605.13;;;3.52;93.72
72560;BME280;62987;52.382;9.752;2022-12-07T05:21:56;100601.63;;;3.50;94.35
72560;BME280;62987;52.382;9.752;2022-12-07T05:24:24;100601.69;;;3.47;94.26
72560;BME280;62987;52.382;9.752;2022-12-07T05:26:52;100604.41;;;3.41;93.97
72560;BME280;62987;52.382;9.752;2022-12-07T05:29:21;100610.53;;;3.43;94.29
72560;BME280;62987;52.382;9.752;2022-12-07T05:31:49;100613.25;;;3.36;94.36
72560;BME280;62987;52.382;9.752;2022-12-07T05:34:17;100609.84;;;3.29;94.04
72560;BME280;62987;52.382;9.752;2022-12-07T05:36:45;100602.00;;;3.26;94.19
72560;BME280;62987;52.382;9.752;2022-12-07T05:39:13;100605.50;;;3.25;94.23
72560;BME280;62987;52.382;9.752;2022-12-07T05:41:41;100599.47;;;3.18;94.01
72560;BME280;62987;52.382;9.752;2022-12-07T05:44:28;100582.97;;;3.09;94.22
72560;BME280;62987;52.382;9.752;2022-12-07T05:46:56;100617.75;;;3.26;93.75
72560;BME280;62987;52.382;9.752;2022-12-07T05:49:24;100616.78;;;3.33;93.78
72560;BME280;62987;52.382;9.752;2022-12-07T05:51:52;100611.53;;;3.33;93.36
72560;BME280;62987;52.382;9.752;2022-12-07T05:54:20;100605.38;;;3.34;93.36
72560;BME280;62987;52.382;9.752;2022-12-07T05:56:48;100614.09;;;3.38;93.61
72560;BME280;62987;52.382;9.752;2022-12-07T05:59:17;100612.31;;;3.38;93.77
72560;BME280;62987;52.382;9.752;2022-12-07T06:01:51;100613.22;;;3.37;93.22
72560;BME280;62987;52.382;9.752;2022-12-07T06:04:21;100586.09;;;3.35;93.37
72560;BME280;62987;52.382;9.752;2022-12-07T06:06:49;100597.41;;;3.42;92.80
72560;BME280;62987;52.382;9.752;2022-12-07T06:09:18;100602.59;;;3.45;93.14
72560;BME280;62987;52.382;9.752;2022-12-07T06:11:46;100599.06;;;3.47;93.29
72560;BME280;62987;52.382;9.752;2022-12-07T06:14:32;100608.59;;;3.54;92.93
72560;BME280;62987;52.382;9.752;2022-12-07T06:17:01;100606.88;;;3.50;92.74
72560;BME280;62987;52.382;9.752;2022-12-07T06:19:29;100605.19;;;3.49;92.99
72560;BME280;62987;52.382;9.752;2022-12-07T06:21:57;100598.19;;;3.48;92.77
72560;BME280;62987;52.382;9.752;2022-12-07T06:24:25;100561.75;;;3.24;92.76
72560;BME280;62987;52.382;9.752;2022-12-07T06:26:53;100600.03;;;3.40;92.59
72560;BME280;62987;52.382;9.752;2022-12-07T06:29:21;100606.94;;;3.47;92.67
72560;BME280;62987;52.382;9.752;2022-12-07T06:31:49;100603.47;;;3.45;92.13
72560;BME280;62987;52.382;9.752;2022-12-07T06:34:20;100598.19;;;3.45;92.27
72560;BME280;62987;52.382;9.752;2022-12-07T06:36:49;100613.88;;;3.51;92.26
72560;BME280;62987;52.382;9.752;2022-12-07T06:39:21;100599.91;;;3.49;92.36
72560;BME280;62987;52.382;9.752;2022-12-07T06:41:50;100607.91;;;3.43;92.08
72560;BME280;62987;52.382;9.752;2022-12-07T06:44:19;100606.88;;;3.50;92.89
72560;BME280;62987;52.382;9.752;2022-12-07T06:46:48;100609.66;;;3.43;92.04
72560;BME280;62987;52.382;9.752;2022-12-07T06:49:16;100608.78;;;3.42;93.25
72560;BME280;62987;52.382;9.752;2022-12-07T06:51:46;100608.72;;;3.44;94.05
72560;BME280;62987;52.382;9.752;2022-12-07T06:54:15;100592.16;;;3.40;93.42
72560;BME280;62987;52.382;9.752;2022-12-07T06:56:43;100601.06;;;3.30;93.55
72560;BME280;62987;52.382;9.752;2022-12-07T06:59:11;100608.97;;;3.30;93.85
72560;BME280;62987;52.382;9.752;2022-12-07T07:01:39;100604.69;;;3.21;94.03
72560;BME280;62987;52.382;9.752;2022-12-07T07:04:07;100614.50;;;3.09;94.36
72560;BME280;62987;52.382;9.752;2022-12-07T07:06:35;100606.63;;;3.07;94.11
72560;BME280;62987;52.382;9.752;2022-12-07T07:09:04;100609.28;;;3.06;94.50
72560;BME280;62987;52.382;9.752;2022-12-07T07:11:32;100617.28;;;2.97;93.96
72560;BME280;62987;52.382;9.752;2022-12-07T07:14:00;100613.56;;;3.13;94.78
72560;BME280;62987;52.382;9.752;2022-12-07T07:16:29;100602.34;;;2.99;94.59
72560;BME280;62987;52.382;9.752;2022-12-07T07:18:58;100619.84;;;3.03;95.03
72560;BME280;62987;52.382;9.752;2022-12-07T07:21:26;100611.06;;;3.04;95.11
72560;BME280;62987;52.382;9.752;2022-12-07T07:23:54;100622.41;;;3.06;95.27
72560;BME280;62987;52.382;9.752;2022-12-07T07:26:24;100578.94;;;2.82;94.62
72560;BME280;62987;52.382;9.752;2022-12-07T07:28:52;100630.19;;;3.13;94.38
72560;BME280;62987;52.382;9.752;2022-12-07T07:31:20;100629.38;;;3.08;93.66
72560;BME280;62987;52.382;9.752;2022-12-07T07:33:48;100632.84;;;3.12;94.42
72560;BME280;62987;52.382;9.752;2022-12-07T07:36:16;100624.94;;;3.12;93.88
72560;BME280;62987;52.382;9.752;2022-12-07T07:38:44;100636.31;;;3.14;93.25
72560;BME280;62987;52.382;9.752;2022-12-07T07:41:12;100637.13;;;3.19;94.14
72560;BME280;62987;52.382;9.752;2022-12-07T07:43:41;100641.63;;;3.11;93.97
72560;BME280;62987;52.382;9.752;2022-12-07T07:46:09;100639.00;;;3.11;93.46
72560;BME280;62987;52.382;9.752;2022-12-07T07:48:37;100640.63;;;3.18;93.55
72560;BME280;62987;52.382;9.752;2022-12-07T07:51:06;100631.91;;;3.17;93.58
72560;BME280;62987;52.382;9.752;2022-12-07T07:53:35;100644.09;;;3.23;93.59
72560;BME280;62987;52.382;9.752;2022-12-07T07:56:03;100635.34;;;3.21;93.74
72560;BME280;62987;52.382;9.752;2022-12-07T07:58:31;100632.84;;;3.12;92.72
72560;BME280;62987;52.382;9.752;2022-12-07T08:01:05;100638.88;;;3.20;93.58
72560;BME280;62987;52.382;9.752;2022-12-07T08:03:33;100633.69;;;3.15;93.66
72560;BME280;62987;52.382;9.752;2022-12-07T08:06:02;100641.38;;;3.29;92.90
72560;BME280;62987;52.382;9.752;2022-12-07T08:08:30;100634.41;;;3.25;92.96
72560;BME280;62987;52.382;9.752;2022-12-07T08:10:59;100638.78;;;3.25;91.97
72560;BME280;62987;52.382;9.752;2022-12-07T08:13:28;100650.09;;;3.33;93.50
72560;BME280;62987;52.382;9.752;2022-12-07T08:15:57;100648.41;;;3.29;92.45
72560;BME280;62987;52.382;9.752;2022-12-07T08:18:27;100648.22;;;3.41;92.55
72560;BME280;62987;52.382;9.752;2022-12-07T08:20:58;100648.13;;;3.48;92.83
72560;BME280;62987;52.382;9.752;2022-12-07T08:23:27;100644.59;;;3.49;92.24
72560;BME280;62987;52.382;9.752;2022-12-07T08:26:07;100641.03;;;3.53;92.05
72560;BME280;62987;52.382;9.752;2022-12-07T08:28:35;100643.66;;;3.53;91.56
72560;BME280;62987;52.382;9.752;2022-12-07T08:31:06;100634.97;;;3.48;91.41
72560;BME280;62987;52.382;9.752;2022-12-07T08:33:36;100643.53;;;3.63;91.76
72560;BME280;62987;52.382;9.752;2022-12-07T08:36:06;100642.66;;;3.62;92.10
72560;BME280;62987;52.382;9.752;2022-12-07T08:38:35;100642.72;;;3.57;91.19
72560;BME280;62987;52.382;9.752;2022-12-07T08:41:03;100641.63;;;3.74;91.77
72560;BME280;62987;52.382;9.752;2022-12-07T08:43:32;100646.75;;;3.81;91.32
72560;BME280;62987;52.382;9.752;2022-12-07T08:46:06;100638.75;;;3.89;91.37
72560;BME280;62987;52.382;9.752;2022-12-07T08:48:41;100656.44;;;3.78;90.66
72560;BME280;62987;52.382;9.752;2022-12-07T08:51:10;100648.50;;;3.82;91.14
72560;BME280;62987;52.382;9.752;2022-12-07T08:53:39;100651.06;;;3.85;90.44
72560;BME280;62987;52.382;9.752;2022-12-07T08:56:09;100641.44;;;3.84;90.71
72560;BME280;62987;52.382;9.752;2022-12-07T08:58:37;100657.16;;;3.89;90.19
72560;BME280;62987;52.382;9.752;2022-12-07T09:01:06;100658.09;;;3.85;92.17
72560;BME280;62987;52.382;9.752;2022-12-07T09:03:34;100661.66;;;3.82;91.05
72560;BME280;62987;52.382;9.752;2022-12-07T09:06:05;100656.41;;;3.81;91.28
72560;BME280;62987;52.382;9.752;2022-12-07T09:08:35;100665.88;;;3.91;91.69
72560;BME280;62987;52.382;9.752;2022-12-07T09:11:04;100657.97;;;3.92;91.67
72560;BME280;62987;52.382;9.752;2022-12-07T09:13:32;100666.19;;;3.70;89.87
72560;BME280;62987;52.382;9.752;2022-12-07T09:16:00;100640.78;;;3.70;90.26
72560;BME280;62987;52.382;9.752;2022-12-07T09:18:28;100658.94;;;3.88;90.38
72560;BME280;62987;52.382;9.752;2022-12-07T09:20:56;100657.16;;;3.89;90.10
72560;BME280;62987;52.382;9.752;2022-12-07T09:23:26;100659.72;;;3.92;89.60
72560;BME280;62987;52.382;9.752;2022-12-07T09:25:54;100657.00;;;3.98;90.00
72560;BME280;62987;52.382;9.752;2022-12-07T09:28:22;100649.00;;;4.06;88.96
72560;BME280;62987;52.382;9.752;2022-12-07T09:30:50;100644.50;;;4.11;88.63
72560;BME280;62987;52.382;9.752;2022-12-07T09:33:38;100654.66;;;4.33;88.41
72560;BME280;62987;52.382;9.752;2022-12-07T09:36:06;100649.09;;;4.50;88.78
72560;BME280;62987;52.382;9.752;2022-12-07T09:38:37;100649.00;;;4.55;86.92
72560;BME280;62987;52.382;9.752;2022-12-07T09:41:06;100653.81;;;4.79;85.30
72560;BME280;62987;52.382;9.752;2022-12-07T09:43:35;100646.94;;;4.70;84.93
72560;BME280;62987;52.382;9.752;2022-12-07T09:46:04;100637.88;;;4.85;85.05
72560;BME280;62987;52.382;9.752;2022-12-07T09:48:35;100636.75;;;4.98;83.16
72560;BME280;62987;52.382;9.752;2022-12-07T09:51:13;100642.06;;;5.37;82.18
72560;BME280;62987;52.382;9.752;2022-12-07T09:53:51;100643.13;;;5.28;83.95
72560;BME280;62987;52.382;9.752;2022-12-07T09:56:21;100636.13;;;5.27;82.42
72560;BME280;62987;52.382;9.752;2022-12-07T09:58:50;100627.47;;;5.20;81.45
72560;BME280;62987;52.382;9.752;2022-12-07T10:01:20;100641.66;;;5.15;83.65
72560;BME280;62987;52.382;9.752;2022-12-07T10:03:50;100626.97;;;5.03;83.18
72560;BME280;62987;52.382;9.752;2022-12-07T10:06:19;100636.50;;;5.09;83.58
72560;BME280;62987;52.382;9.752;2022-12-07T10:08:47;100647.34;;;4.95;84.18
72560;BME280;62987;52.382;9.752;2022-12-07T10:11:17;100641.22;;;4.93;82.98
72560;BME280;62987;52.382;9.752;2022-12-07T10:13:46;100628.09;;;6.09;78.14
72560;BME280;62987;52.382;9.752;2022-12-07T10:16:36;100635.22;;;5.67;77.97
72560;BME280;62987;52.382;9.752;2022-12-07T10:19:19;100636.44;;;5.52;80.41
72560;BME280;62987;52.382;9.752;2022-12-07T10:22:09;100629.09;;;5.26;81.88
72560;BME280;62987;52.382;9.752;2022-12-07T10:24:38;100633.50;;;5.26;82.34
72560;BME280;62987;52.382;9.752;2022-12-07T10:27:19;100637.25;;;5.15;83.85
72560;BME280;62987;52.382;9.752;2022-12-07T10:29:50;100635.59;;;5.11;84.79
72560;BME280;62987;52.382;9.752;2022-12-07T10:32:30;100637.00;;;4.85;84.61
72560;BME280;62987;52.382;9.752;2022-12-07T10:35:21;100639.50;;;4.92;84.68
72560;BME280;62987;52.382;9.752;2022-12-07T10:37:50;100636.25;;;4.79;84.10
72560;BME280;62987;52.382;9.752;2022-12-07T10:40:30;100632.28;;;5.00;84.56
72560;BME280;62987;52.382;9.752;2022-12-07T10:43:12;100624.44;;;4.99;84.74
72560;BME280;62987;52.382;9.752;2022-12-07T10:48:59;100627.47;;;4.79;84.93
72560;BME280;62987;52.382;9.752;2022-12-07T10:51:35;100623.13;;;4.76;84.64
72560;BME280;62987;52.382;9.752;2022-12-07T10:54:11;100623.81;;;4.86;87.52
72560;BME280;62987;52.382;9.752;2022-12-07T10:56:56;100632.75;;;4.79;86.97
72560;BME280;62987;52.382;9.752;2022-12-07T10:59:41;100622.53;;;4.61;88.48
72560;BME280;62987;52.382;9.752;2022-12-07T11:02:25;100615.00;;;4.42;86.82
72560;BME280;62987;52.382;9.752;2022-12-07T11:05:06;100607.94;;;4.45;88.78
72560;BME280;62987;52.382;9.752;2022-12-07T11:07:49;100601.03;;;4.37;87.99
72560;BME280;62987;52.382;9.752;2022-12-07T11:10:26;100620.75;;;4.63;88.09
72560;BME280;62987;52.382;9.752;2022-12-07T11:13:10;100620.13;;;4.49;88.09
72560;BME280;62987;52.382;9.752;2022-12-07T11:15:53;100623.72;;;4.46;87.94
72560;BME280;62987;52.382;9.752;2022-12-07T11:18:26;100626.47;;;4.38;88.89
72560;BME280;62987;52.382;9.752;2022-12-07T11:20:59;100623.25;;;4.23;89.57
72560;BME280;62987;52.382;9.752;2022-12-07T11:23:44;100614.91;;;3.98;91.57
72560;BME280;62987;52.382;9.752;2022-12-07T11:26:24;100612.72;;;3.71;90.75
72560;BME280;62987;52.382;9.752;2022-12-07T11:29:09;100573.84;;;3.34;91.37
72560;BME280;62987;52.382;9.752;2022-12-07T11:31:53;100600.13;;;3.34;90.92
72560;BME280;62987;52.382;9.752;2022-12-07T11:34:27;100600.13;;;3.34;91.28
72560;BME280;62987;52.382;9.752;2022-12-07T11:37:01;100610.13;;;3.08;91.81
72560;BME280;62987;52.382;9.752;2022-12-07T11:39:35;100609.06;;;3.21;92.64
72560;BME280;62987;52.382;9.752;2022-12-07T11:42:09;100604.53;;;3.31;92.77
72560;BME280;62987;52.382;9.752;2022-12-07T11:44:48;100586.88;;;3.43;93.44
72560;BME280;62987;52.382;9.752;2022-12-07T11:47:26;100585.03;;;3.48;92.82
72560;BME280;62987;52.382;9.752;2022-12-07T11:50:01;100588.47;;;3.50;91.87
72560;BME280;62987;52.382;9.752;2022-12-07T11:52:39;100594.09;;;3.83;92.27
72560;BME280;62987;52.382;9.752;2022-12-07T11:55:18;100600.06;;;3.94;92.83
72560;BME280;62987;52.382;9.752;2022-12-07T11:57:52;100586.72;;;4.05;91.73
72560;BME280;62987;52.382;9.752;2022-12-07T12:00:24;100584.19;;;3.98;90.57
72560;BME280;62987;52.382;9.752;2022-12-07T12:02:57;100575.16;;;4.15;91.66
72560;BME280;62987;52.382;9.752;2022-12-07T12:05:27;100580.91;;;4.79;88.53
72560;BME280;62987;52.382;9.752;2022-12-07T12:08:01;100559.44;;;5.38;85.89
72560;BME280;62987;52.382;9.752;2022-12-07T12:10:55;100571.78;;;5.36;86.37
72560;BME280;62987;52.382;9.752;2022-12-07T12:20:00;100558.16;;;5.15;89.13
72560;BME280;62987;52.382;9.752;2022-12-07T12:22:34;100564.47;;;5.08;86.99
72560;BME280;62987;52.382;9.752;2022-12-07T12:25:05;100555.84;;;5.02;90.19
72560;BME280;62987;52.382;9.752;2022-12-07T12:27:36;100558.97;;;4.79;88.45
72560;BME280;62987;52.382;9.752;2022-12-07T12:30:06;100559.19;;;4.68;88.64
72560;BME280;62987;52.382;9.752;2022-12-07T12:32:50;100551.22;;;4.71;88.88
72560;BME280;62987;52.382;9.752;2022-12-07T12:35:29;100545.81;;;4.77;89.71
72560;BME280;62987;52.382;9.752;2022-12-07T12:38:26;100542.47;;;4.69;88.43
72560;BME280;62987;52.382;9.752;2022-12-07T12:40:55;100544.41;;;4.61;88.14
72560;BME280;62987;52.382;9.752;2022-12-07T12:43:44;100543.28;;;4.73;88.23
72560;BME280;62987;52.382;9.752;2022-12-07T12:46:37;100536.50;;;5.03;87.37
72560;BME280;62987;52.382;9.752;2022-12-07T12:49:34;100542.13;;;4.86;87.37
72560;BME280;62987;52.382;9.752;2022-12-07T12:55:24;100534.28;;;4.83;88.68
72560;BME280;62987;52.382;9.752;2022-12-07T12:58:31;100538.56;;;4.87;86.85
72560;BME280;62987;52.382;9.752;2022-12-07T13:04:23;100518.47;;;4.85;87.05
72560;BME280;62987;52.382;9.752;2022-12-07T13:06:52;100530.41;;;4.99;86.43
72560;BME280;62987;52.382;9.752;2022-12-07T13:09:23;100535.34;;;5.14;85.96
72560;BME280;62987;52.382;9.752;2022-12-07T13:12:00;100528.00;;;5.29;86.70
72560;BME280;62987;52.382;9.752;2022-12-07T13:17:57;100524.59;;;5.23;84.97
72560;BME280;62987;52.382;9.752;2022-12-07T13:20:48;100526.41;;;5.21;85.30
72560;BME280;62987;52.382;9.752;2022-12-07T13:23:24;100517.94;;;5.07;84.14
72560;BME280;62987;52.382;9.752;2022-12-07T13:26:23;100525.22;;;4.96;84.13
72560;BME280;62987;52.382;9.752;2022-12-07T13:29:06;100518.28;;;4.92;84.67
72560;BME280;62987;52.382;9.752;2022-12-07T13:31:37;100515.53;;;4.98;85.06
72560;BME280;62987;52.382;9.752;2022-12-07T13:34:28;100518.34;;;4.89;85.21
72560;BME280;62987;52.382;9.752;2022-12-07T13:36:57;100521.38;;;4.71;84.12
72560;BME280;62987;52.382;9.752;2022-12-07T13:39:26;100511.56;;;4.79;87.33
72560;BME280;62987;52.382;9.752;2022-12-07T13:41:56;100516.88;;;4.76;84.87
72560;BME280;62987;52.382;9.752;2022-12-07T13:44:28;100508.06;;;4.77;85.45
72560;BME280;62987;52.382;9.752;2022-12-07T13:47:01;100509.81;;;4.78;84.23
72560;BME280;62987;52.382;9.752;2022-12-07T13:49:37;100513.84;;;4.94;86.38